Time;durP1;ratioP1;P1;durP2;ratioP2;P2;SDS_P1;SDS_P2;PMS_P1;PMS_P2;Temp;Humidity;BMP_temperature;BMP_pressure;BME280_temperature;BME280_humidity;BME280_pressure;Samples;Min_cycle;Max_cycle;Signal;HPM_P1;HPM_P2
2021/03/22 00:00:44;;;;;;;;;;;5.60;99.90;;;;;;5074037;28;19905;-78
2021/03/22 00:03:10;;;;;;;;;;;5.60;99.90;;;;;;5073818;28;19911;-78
2021/03/22 00:05:35;;;;;;;;;;;5.60;99.90;;;;;;5073366;28;19908;-78
2021/03/22 00:08:01;;;;;;;;;;;5.50;99.90;;;;;;5075095;28;19947;-78
2021/03/22 00:10:28;;;;;;;;;;;5.50;99.90;;;;;;5074816;28;19904;-78
2021/03/22 00:12:54;;;;;;;;;;;5.50;99.90;;;;;;5073620;28;19970;-78
2021/03/22 00:15:20;;;;;;;;;;;5.60;99.90;;;;;;5074923;28;19950;-78
2021/03/22 00:17:46;;;;;;;;;;;5.50;99.90;;;;;;5073274;28;19908;-78
2021/03/22 00:20:12;;;;;;;;;;;5.50;99.90;;;;;;5074503;28;20003;-78
2021/03/22 00:22:37;;;;;;;;;;;5.50;99.90;;;;;;5073074;28;19904;-79
2021/03/22 00:25:04;;;;;;;;;;;5.50;99.90;;;;;;5072850;28;20518;-78
2021/03/22 00:27:29;;;;;;;;;;;5.50;99.90;;;;;;5073065;28;20389;-77
2021/03/22 00:29:55;;;;;;;;;;;5.50;99.90;;;;;;5072818;28;19905;-78
2021/03/22 00:32:20;;;;;;;;;;;5.40;99.90;;;;;;5072956;28;19916;-78
2021/03/22 00:34:45;;;;;;;;;;;5.40;99.90;;;;;;5072809;28;19948;-78
2021/03/22 00:37:11;;;;;;;;;;;5.50;99.90;;;;;;5073002;28;19912;-78
2021/03/22 00:39:36;;;;;;;;;;;5.50;99.90;;;;;;5073951;28;20275;-78
2021/03/22 00:42:02;;;;;;;;;;;5.50;99.90;;;;;;5072181;28;19911;-77
2021/03/22 00:44:28;;;;;;;;;;;5.50;99.90;;;;;;5074655;28;20275;-78
2021/03/22 00:46:54;;;;;;;;;;;5.50;99.90;;;;;;5073583;28;20371;-77
2021/03/22 00:49:20;;;;;;;;;;;5.50;99.90;;;;;;5077619;28;19911;-81
2021/03/22 00:51:45;;;;;;;;;;;5.40;99.90;;;;;;5081081;28;20023;-80
2021/03/22 00:54:11;;;;;;;;;;;5.40;99.90;;;;;;5078359;28;19905;-79
2021/03/22 00:56:36;;;;;;;;;;;5.40;99.90;;;;;;5076965;28;19912;-78
2021/03/22 00:59:02;;;;;;;;;;;5.50;99.90;;;;;;5075738;28;20013;-79
2021/03/22 01:01:27;;;;;;;;;;;5.50;99.90;;;;;;5077891;28;19975;-79
2021/03/22 01:03:53;;;;;;;;;;;5.40;99.90;;;;;;5076597;28;19912;-79
2021/03/22 01:06:18;;;;;;;;;;;5.40;99.90;;;;;;5077918;28;19950;-79
2021/03/22 01:08:44;;;;;;;;;;;5.40;99.90;;;;;;5076342;28;19927;-79
2021/03/22 01:11:12;;;;;;;;;;;5.40;99.90;;;;;;5076626;28;20454;-79
2021/03/22 01:13:39;;;;;;;;;;;5.50;99.90;;;;;;5077491;28;19911;-79
2021/03/22 01:16:05;;;;;;;;;;;5.50;99.90;;;;;;5076382;28;19905;-78
2021/03/22 01:18:32;;;;;;;;;;;5.50;99.90;;;;;;5075806;28;19912;-78
2021/03/22 01:21:06;;;;;;;;;;;5.50;99.90;;;;;;5076262;28;19911;-79
2021/03/22 01:23:31;;;;;;;;;;;5.40;99.90;;;;;;5076743;28;19905;-79
2021/03/22 01:25:57;;;;;;;;;;;5.40;99.90;;;;;;5076607;28;19904;-80
2021/03/22 01:28:22;;;;;;;;;;;5.40;99.90;;;;;;5076811;28;19904;-79
2021/03/22 01:30:49;;;;;;;;;;;5.40;99.90;;;;;;5076274;28;19947;-79
2021/03/22 01:33:16;;;;;;;;;;;5.40;99.90;;;;;;5077490;28;19963;-79
2021/03/22 01:35:42;;;;;;;;;;;5.30;99.90;;;;;;5077568;28;19926;-78
2021/03/22 01:38:08;;;;;;;;;;;5.30;99.90;;;;;;5075703;28;19908;-79
2021/03/22 01:40:40;;;;;;;;;;;5.40;99.90;;;;;;5077916;28;20337;-79
2021/03/22 01:43:16;;;;;;;;;;;5.40;99.90;;;;;;5076556;28;19904;-79
2021/03/22 01:45:42;;;;;;;;;;;5.40;99.90;;;;;;5076315;28;19904;-80
2021/03/22 01:48:08;;;;;;;;;;;5.40;99.90;;;;;;5077763;28;19904;-80
2021/03/22 01:50:34;;;;;;;;;;;5.40;99.90;;;;;;5077968;28;19911;-79
2021/03/22 01:53:00;;;;;;;;;;;5.30;99.90;;;;;;5076615;28;19954;-79
2021/03/22 01:55:25;;;;;;;;;;;5.30;99.90;;;;;;5075815;28;19904;-79
2021/03/22 01:57:51;;;;;;;;;;;5.30;99.90;;;;;;5075984;28;19912;-79
2021/03/22 02:00:28;;;;;;;;;;;5.30;99.90;;;;;;5077276;28;20279;-80
2021/03/22 02:03:05;;;;;;;;;;;5.30;99.90;;;;;;5075654;28;19981;-79
2021/03/22 02:05:32;;;;;;;;;;;5.30;99.90;;;;;;5075910;28;19905;-79
2021/03/22 02:08:04;;;;;;;;;;;5.30;99.90;;;;;;5075630;28;19912;-79
2021/03/22 02:10:29;;;;;;;;;;;5.30;99.90;;;;;;5075929;28;19912;-79
2021/03/22 02:12:55;;;;;;;;;;;5.30;99.90;;;;;;5075165;28;19904;-79
2021/03/22 02:15:20;;;;;;;;;;;5.20;99.90;;;;;;5075438;28;19904;-79
2021/03/22 02:18:07;;;;;;;;;;;5.20;99.90;;;;;;5075246;28;19908;-80
2021/03/22 02:20:32;;;;;;;;;;;5.30;99.90;;;;;;5075272;28;19908;-79
2021/03/22 02:23:13;;;;;;;;;;;5.20;99.90;;;;;;5076222;28;20010;-80
2021/03/22 02:25:38;;;;;;;;;;;5.20;99.90;;;;;;5077002;28;19911;-80
2021/03/22 02:28:33;;;;;;;;;;;5.20;99.90;;;;;;5075803;28;19943;-80
2021/03/22 02:31:18;;;;;;;;;;;5.20;99.90;;;;;;5075593;28;19989;-79
2021/03/22 02:33:49;;;;;;;;;;;5.20;99.90;;;;;;5075259;28;19970;-79
2021/03/22 02:36:26;;;;;;;;;;;5.10;99.90;;;;;;5074979;28;20371;-80
2021/03/22 02:38:56;;;;;;;;;;;5.20;99.90;;;;;;5073151;28;19912;-78
2021/03/22 02:41:23;;;;;;;;;;;5.20;99.90;;;;;;5072890;28;19999;-78
2021/03/22 02:44:05;;;;;;;;;;;5.20;99.90;;;;;;5074146;28;20490;-78
2021/03/22 02:46:32;;;;;;;;;;;5.20;99.90;;;;;;5075314;28;19904;-77
2021/03/22 02:48:57;;;;;;;;;;;5.20;99.90;;;;;;5074969;28;19959;-79
2021/03/22 02:51:26;;;;;;;;;;;5.20;99.90;;;;;;5075353;28;19904;-78
2021/03/22 02:53:56;;;;;;;;;;;5.20;99.90;;;;;;5074853;28;19911;-77
2021/03/22 02:56:26;;;;;;;;;;;5.10;99.90;;;;;;5075454;28;20367;-78
2021/03/22 02:58:54;;;;;;;;;;;5.10;99.90;;;;;;5075293;28;19961;-79
2021/03/22 03:01:24;;;;;;;;;;;5.10;99.90;;;;;;5077079;28;20000;-80
2021/03/22 03:03:51;;;;;;;;;;;5.10;99.90;;;;;;5075292;28;19911;-78
2021/03/22 03:06:17;;;;;;;;;;;5.20;99.90;;;;;;5078588;28;19962;-78
2021/03/22 03:08:42;;;;;;;;;;;5.20;99.90;;;;;;5077248;28;19909;-78
2021/03/22 03:11:09;;;;;;;;;;;5.20;99.90;;;;;;5077092;28;19911;-79
2021/03/22 03:13:35;;;;;;;;;;;5.20;99.90;;;;;;5077188;28;20343;-78
2021/03/22 03:16:01;;;;;;;;;;;5.20;99.90;;;;;;5078050;28;19950;-80
2021/03/22 03:18:26;;;;;;;;;;;5.20;99.90;;;;;;5080916;28;19913;-78
2021/03/22 03:20:52;;;;;;;;;;;5.20;99.90;;;;;;5078838;28;20374;-78
2021/03/22 03:23:18;;;;;;;;;;;5.20;99.90;;;;;;5078689;28;20295;-78
2021/03/22 03:25:43;;;;;;;;;;;5.20;99.90;;;;;;5080028;28;19911;-77
2021/03/22 03:28:09;;;;;;;;;;;5.10;99.90;;;;;;5078924;28;20003;-80
2021/03/22 03:30:36;;;;;;;;;;;5.20;99.90;;;;;;5077155;28;19940;-78
2021/03/22 03:33:03;;;;;;;;;;;5.20;99.90;;;;;;5078084;28;19919;-78
2021/03/22 03:35:29;;;;;;;;;;;5.20;99.90;;;;;;5076305;28;20012;-78
2021/03/22 03:37:55;;;;;;;;;;;5.20;99.90;;;;;;5077819;28;20359;-79
2021/03/22 03:40:21;;;;;;;;;;;5.10;99.90;;;;;;5076360;28;20004;-79
2021/03/22 03:42:46;;;;;;;;;;;5.20;99.90;;;;;;5076576;28;19915;-78
2021/03/22 03:45:12;;;;;;;;;;;5.20;99.90;;;;;;5077386;28;19912;-78
2021/03/22 03:47:38;;;;;;;;;;;5.20;99.90;;;;;;5075568;28;19912;-78
2021/03/22 03:50:06;;;;;;;;;;;5.10;99.90;;;;;;5076449;28;19904;-78
2021/03/22 03:52:31;;;;;;;;;;;5.00;99.90;;;;;;5076245;28;19904;-78
2021/03/22 03:54:57;;;;;;;;;;;5.10;99.90;;;;;;5074626;28;19911;-77
2021/03/22 03:57:22;;;;;;;;;;;5.20;99.90;;;;;;5080768;28;19944;-78
2021/03/22 03:59:48;;;;;;;;;;;5.10;99.90;;;;;;5077857;28;19915;-78
2021/03/22 04:02:13;;;;;;;;;;;5.10;99.90;;;;;;5075123;28;19931;-77
2021/03/22 04:04:39;;;;;;;;;;;5.00;99.90;;;;;;5076151;28;19912;-78
2021/03/22 04:07:04;;;;;;;;;;;5.20;99.90;;;;;;5076008;28;19950;-78
2021/03/22 04:09:30;;;;;;;;;;;5.20;99.90;;;;;;5075035;28;19905;-78
2021/03/22 04:11:55;;;;;;;;;;;5.20;99.90;;;;;;5075084;28;19908;-78
2021/03/22 04:14:23;;;;;;;;;;;5.10;99.90;;;;;;5075365;28;20229;-77
2021/03/22 04:16:48;;;;;;;;;;;5.10;99.90;;;;;;5074613;28;19905;-79
2021/03/22 04:19:14;;;;;;;;;;;5.10;99.90;;;;;;5075700;28;19934;-78
2021/03/22 04:21:40;;;;;;;;;;;5.10;99.90;;;;;;5077490;28;19926;-79
2021/03/22 04:24:06;;;;;;;;;;;5.10;99.90;;;;;;5078385;28;19908;-79
2021/03/22 04:26:32;;;;;;;;;;;5.10;99.90;;;;;;5078106;28;19904;-79
2021/03/22 04:28:57;;;;;;;;;;;5.10;99.90;;;;;;5077298;28;19995;-79
2021/03/22 04:31:24;;;;;;;;;;;5.10;99.90;;;;;;5076673;28;19958;-79
2021/03/22 04:33:50;;;;;;;;;;;5.00;99.90;;;;;;5075680;28;20004;-77
2021/03/22 04:36:16;;;;;;;;;;;5.00;99.90;;;;;;5075890;28;19908;-79
2021/03/22 04:38:42;;;;;;;;;;;5.00;99.90;;;;;;5076210;28;19919;-80
2021/03/22 04:41:07;;;;;;;;;;;5.00;99.90;;;;;;5076933;28;20359;-81
2021/03/22 04:43:33;;;;;;;;;;;5.10;99.90;;;;;;5077002;28;19905;-81
2021/03/22 04:45:59;;;;;;;;;;;5.00;99.90;;;;;;5076868;28;20011;-80
2021/03/22 04:48:24;;;;;;;;;;;4.90;99.90;;;;;;5075962;28;20331;-80
2021/03/22 04:50:50;;;;;;;;;;;5.00;99.90;;;;;;5075976;28;19904;-80
2021/03/22 04:53:15;;;;;;;;;;;5.00;99.90;;;;;;5074938;28;19908;-81
2021/03/22 04:55:41;;;;;;;;;;;5.10;99.90;;;;;;5077115;28;19991;-79
2021/03/22 04:58:06;;;;;;;;;;;5.00;99.90;;;;;;5075503;28;19944;-80
2021/03/22 05:00:38;;;;;;;;;;;5.00;99.90;;;;;;5074893;28;19927;-79
2021/03/22 05:03:04;;;;;;;;;;;5.00;99.90;;;;;;5074452;28;20329;-78
2021/03/22 05:05:29;;;;;;;;;;;5.00;99.90;;;;;;5075416;28;19905;-78
2021/03/22 05:07:55;;;;;;;;;;;4.90;99.90;;;;;;5075803;28;19910;-79
2021/03/22 05:10:22;;;;;;;;;;;4.90;99.90;;;;;;5075174;28;19947;-79
2021/03/22 05:12:47;;;;;;;;;;;5.00;99.90;;;;;;5074574;28;19911;-79
2021/03/22 05:15:13;;;;;;;;;;;5.10;99.90;;;;;;5075308;28;19909;-79
2021/03/22 05:17:38;;;;;;;;;;;5.00;99.90;;;;;;5073611;28;20052;-78
2021/03/22 05:20:05;;;;;;;;;;;5.10;99.90;;;;;;5074198;28;20313;-77
2021/03/22 05:22:31;;;;;;;;;;;5.00;99.90;;;;;;5075720;28;20351;-79
2021/03/22 05:24:56;;;;;;;;;;;5.00;99.90;;;;;;5077596;28;19975;-80
2021/03/22 05:27:22;;;;;;;;;;;4.90;99.90;;;;;;5070790;28;19909;-79
2021/03/22 05:29:47;;;;;;;;;;;4.90;99.90;;;;;;5063946;28;19904;-78
2021/03/22 05:32:29;;;;;;;;;;;4.90;99.90;;;;;;5069067;28;20011;-79
2021/03/22 05:34:55;;;;;;;;;;;5.00;99.90;;;;;;5073771;28;19912;-79
2021/03/22 05:37:20;;;;;;;;;;;5.00;99.90;;;;;;5073240;28;19904;-78
2021/03/22 05:39:46;;;;;;;;;;;4.90;99.90;;;;;;5066563;28;19939;-79
2021/03/22 05:42:32;;;;;;;;;;;5.00;99.90;;;;;;5061445;28;19936;-78
2021/03/22 05:45:00;;;;;;;;;;;5.00;99.90;;;;;;5047120;28;19904;-78
2021/03/22 05:47:34;;;;;;;;;;;4.90;99.90;;;;;;5061633;28;19905;-78
2021/03/22 05:50:09;;;;;;;;;;;5.00;99.90;;;;;;5061891;28;19931;-77
2021/03/22 05:52:35;;;;;;;;;;;5.00;99.90;;;;;;5062803;28;19909;-79
2021/03/22 05:55:00;;;;;;;;;;;5.20;99.90;;;;;;5062330;28;19990;-79
2021/03/22 05:57:25;;;;;;;;;;;5.10;99.90;;;;;;5061668;28;19909;-80
2021/03/22 06:00:09;;;;;;;;;;;5.10;99.90;;;;;;5065423;28;19909;-80
2021/03/22 06:02:40;;;;;;;;;;;5.00;99.90;;;;;;5067592;28;19919;-79
2021/03/22 06:05:21;;;;;;;;;;;5.10;99.90;;;;;;5067012;28;19984;-79
2021/03/22 06:07:51;;;;;;;;;;;5.10;99.90;;;;;;5066309;28;19935;-79
2021/03/22 06:10:18;;;;;;;;;;;5.10;99.90;;;;;;5059104;28;19931;-79
2021/03/22 06:12:46;;;;;;;;;;;5.10;99.90;;;;;;5057394;28;20375;-79
2021/03/22 06:15:19;;;;;;;;;;;5.00;99.90;;;;;;5057574;28;19911;-79
2021/03/22 06:17:48;;;;;;;;;;;5.10;99.90;;;;;;5054691;28;19916;-77
2021/03/22 06:20:25;;;;;;;;;;;5.10;99.90;;;;;;5053019;28;19944;-78
2021/03/22 06:22:50;;;;;;;;;;;5.10;99.90;;;;;;5052817;28;20322;-78
2021/03/22 06:25:20;;;;;;;;;;;5.20;99.90;;;;;;5052641;28;19909;-77
2021/03/22 06:27:49;;;;;;;;;;;5.10;99.90;;;;;;5052417;28;19912;-79
2021/03/22 06:30:20;;;;;;;;;;;5.20;99.90;;;;;;5053170;28;20357;-79
2021/03/22 06:32:48;;;;;;;;;;;5.20;99.90;;;;;;5052012;28;19913;-78
2021/03/22 06:35:34;;;;;;;;;;;5.30;99.90;;;;;;5051080;28;19916;-77
2021/03/22 06:38:00;;;;;;;;;;;5.30;99.90;;;;;;5050440;28;19905;-78
2021/03/22 06:40:25;;;;;;;;;;;5.30;99.90;;;;;;5056859;28;20097;-78
2021/03/22 06:43:06;;;;;;;;;;;5.40;99.90;;;;;;5056485;28;19905;-79
2021/03/22 06:45:39;;;;;;;;;;;5.30;99.90;;;;;;5058003;28;19970;-78
2021/03/22 06:48:19;;;;;;;;;;;5.40;99.90;;;;;;5058905;28;19912;-79
2021/03/22 06:50:45;;;;;;;;;;;5.50;99.90;;;;;;5058030;28;19911;-77
2021/03/22 06:53:11;;;;;;;;;;;5.50;99.90;;;;;;5058779;28;19916;-79
2021/03/22 06:55:41;;;;;;;;;;;5.50;99.90;;;;;;5055700;28;20268;-79
2021/03/22 06:58:18;;;;;;;;;;;5.50;99.90;;;;;;5058170;28;19904;-81
2021/03/22 07:00:43;;;;;;;;;;;5.60;99.90;;;;;;5060438;28;20000;-79
2021/03/22 07:03:22;;;;;;;;;;;5.70;99.90;;;;;;5058673;28;19956;-81
2021/03/22 07:05:48;;;;;;;;;;;5.80;99.90;;;;;;5059915;28;19905;-81
2021/03/22 07:08:19;;;;;;;;;;;5.70;99.90;;;;;;5055788;28;19916;-77
2021/03/22 07:10:54;;;;;;;;;;;5.70;99.90;;;;;;5054555;28;19994;-76
2021/03/22 07:13:27;;;;;;;;;;;5.80;99.90;;;;;;5054215;28;19905;-78
2021/03/22 07:15:56;;;;;;;;;;;5.80;99.90;;;;;;5054822;28;19908;-78
2021/03/22 07:18:24;;;;;;;;;;;5.80;99.90;;;;;;5056242;28;19915;-78
2021/03/22 07:21:03;;;;;;;;;;;5.80;99.90;;;;;;5057225;28;19915;-80
2021/03/22 07:23:35;;;;;;;;;;;5.80;99.90;;;;;;5055681;28;19909;-76
2021/03/22 07:26:08;;;;;;;;;;;5.90;99.90;;;;;;5053454;28;20378;-77
2021/03/22 07:28:51;;;;;;;;;;;5.90;99.90;;;;;;5054647;28;20330;-76
2021/03/22 07:31:21;;;;;;;;;;;5.90;99.90;;;;;;5053350;28;20276;-75
2021/03/22 07:34:07;;;;;;;;;;;6.00;99.90;;;;;;5053158;28;19908;-78
2021/03/22 07:36:42;;;;;;;;;;;6.00;99.90;;;;;;5054373;28;19951;-77
2021/03/22 07:39:22;;;;;;;;;;;6.10;99.90;;;;;;5054085;28;19970;-76
2021/03/22 07:41:50;;;;;;;;;;;6.20;99.90;;;;;;5055791;28;21044;-79
2021/03/22 07:44:22;;;;;;;;;;;6.30;99.90;;;;;;5052788;28;20257;-76
2021/03/22 07:47:06;;;;;;;;;;;6.20;99.90;;;;;;5054519;28;20007;-77
2021/03/22 07:49:34;;;;;;;;;;;6.20;99.90;;;;;;5055155;28;19963;-76
2021/03/22 07:52:15;;;;;;;;;;;6.30;99.90;;;;;;5054322;28;20010;-77
2021/03/22 07:54:55;;;;;;;;;;;6.40;99.90;;;;;;5054544;28;19909;-78
2021/03/22 07:57:26;;;;;;;;;;;6.30;99.90;;;;;;5053682;28;19912;-77
2021/03/22 08:00:12;;;;;;;;;;;6.20;99.90;;;;;;5054404;28;19954;-77
2021/03/22 08:02:44;;;;;;;;;;;6.30;99.90;;;;;;5024755;28;19911;-76
2021/03/22 08:05:16;;;;;;;;;;;6.30;99.90;;;;;;5055532;28;19912;-75
2021/03/22 08:07:47;;;;;;;;;;;6.30;99.90;;;;;;5054539;28;20283;-77
2021/03/22 08:10:36;;;;;;;;;;;6.30;99.90;;;;;;5055179;28;19940;-77
2021/03/22 08:13:08;;;;;;;;;;;6.40;99.90;;;;;;5053882;28;19911;-77
2021/03/22 08:15:41;;;;;;;;;;;6.40;99.90;;;;;;5054463;28;19912;-76
2021/03/22 08:18:10;;;;;;;;;;;6.40;99.90;;;;;;5052984;28;19904;-76
2021/03/22 08:20:47;;;;;;;;;;;6.50;99.90;;;;;;5053429;28;19974;-78
2021/03/22 08:23:31;;;;;;;;;;;6.50;99.90;;;;;;5054251;28;19904;-77
2021/03/22 08:25:58;;;;;;;;;;;6.80;99.90;;;;;;5053176;28;19915;-77
2021/03/22 08:28:32;;;;;;;;;;;6.90;99.90;;;;;;5053747;28;20344;-77
2021/03/22 08:31:01;;;;;;;;;;;7.00;99.90;;;;;;5052170;28;19909;-77
2021/03/22 08:33:29;;;;;;;;;;;6.90;99.90;;;;;;5052133;28;20019;-76
2021/03/22 08:36:04;;;;;;;;;;;7.00;99.90;;;;;;5052960;28;19905;-76
2021/03/22 08:38:33;;;;;;;;;;;6.90;99.90;;;;;;5053442;28;19912;-76
2021/03/22 08:40:59;;;;;;;;;;;6.90;99.90;;;;;;5053134;28;19905;-77
2021/03/22 08:43:32;;;;;;;;;;;6.90;99.90;;;;;;5051994;28;20046;-76
2021/03/22 08:46:22;;;;;;;;;;;6.80;99.90;;;;;;5053223;28;19905;-77
2021/03/22 08:48:48;;;;;;;;;;;6.90;99.90;;;;;;5052140;28;19904;-77
2021/03/22 08:51:17;;;;;;;;;;;7.00;99.90;;;;;;5052950;28;19953;-76
2021/03/22 08:53:43;;;;;;;;;;;6.70;99.90;;;;;;5052868;28;19905;-76
2021/03/22 08:56:23;;;;;;;;;;;6.80;99.90;;;;;;5051604;28;19912;-77
2021/03/22 08:58:58;;;;;;;;;;;6.80;99.90;;;;;;5052807;28;19919;-76
2021/03/22 09:01:26;;;;;;;;;;;7.00;99.90;;;;;;5052278;28;19950;-77
2021/03/22 09:03:52;;;;;;;;;;;7.20;99.90;;;;;;5050892;28;19905;-76
2021/03/22 09:06:24;;;;;;;;;;;7.50;99.90;;;;;;5052309;28;19967;-77
2021/03/22 09:08:49;;;;;;;;;;;7.60;99.90;;;;;;5053469;28;19958;-75
2021/03/22 09:11:15;;;;;;;;;;;7.60;99.90;;;;;;5053303;28;19905;-77
2021/03/22 09:13:49;;;;;;;;;;;7.50;99.90;;;;;;5052270;28;19905;-77
2021/03/22 09:16:18;;;;;;;;;;;7.50;99.90;;;;;;5053678;28;19904;-77
2021/03/22 09:19:02;;;;;;;;;;;7.60;99.90;;;;;;5051206;28;19908;-76
2021/03/22 09:21:28;;;;;;;;;;;7.50;99.90;;;;;;5055593;28;19966;-77
2021/03/22 09:23:53;;;;;;;;;;;7.50;99.90;;;;;;5054405;28;20419;-76
2021/03/22 09:26:38;;;;;;;;;;;7.60;99.90;;;;;;5051072;28;19991;-77
2021/03/22 09:29:23;;;;;;;;;;;7.80;99.90;;;;;;5051282;28;20291;-77
2021/03/22 09:31:48;;;;;;;;;;;7.90;99.90;;;;;;5054266;28;19913;-78
2021/03/22 09:34:14;;;;;;;6.00;2.60;;;8.00;99.90;;;;;;5053121;28;19909;-76
2021/03/22 09:36:42;;;;;;;13.80;2.85;;;8.10;99.90;;;;;;5053127;28;20024;-77
2021/03/22 09:39:18;;;;;;;4.10;2.40;;;8.10;99.90;;;;;;5051994;28;20095;-76
2021/03/22 09:41:55;;;;;;;2.63;1.65;;;8.00;99.90;;;;;;5051822;28;20018;-77
2021/03/22 09:44:24;;;;;;;3.25;1.30;;;8.20;99.90;;;;;;5050771;28;20028;-76
2021/03/22 09:47:14;;;;;;;2.97;1.77;;;8.20;99.90;;;;;;5052285;28;20044;-76
2021/03/22 09:49:58;;;;;;;5.05;1.92;;;8.30;99.90;;;;;;5052105;28;20025;-80
2021/03/22 09:52:26;;;;;;;9.43;2.83;;;8.50;99.90;;;;;;5051073;28;20028;-76
2021/03/22 09:54:53;;;;;;;6.10;2.10;;;8.30;99.90;;;;;;5052663;28;20044;-77
2021/03/22 09:57:28;;;;;;;2.70;1.70;;;8.40;99.90;;;;;;5051364;28;20033;-76
2021/03/22 10:00:11;;;;;;;2.75;2.10;;;8.30;99.90;;;;;;5051922;28;20078;-76
2021/03/22 10:02:51;;;;;;;4.75;2.55;;;8.40;99.90;;;;;;5050451;28;20091;-76
2021/03/22 10:05:44;;;;;;;5.60;2.03;;;8.10;99.90;;;;;;5050033;28;20032;-77
2021/03/22 10:08:10;;;;;;;4.50;2.22;;;8.10;99.90;;;;;;5050176;28;20013;-77
2021/03/22 10:10:39;;;;;;;3.45;2.13;;;8.10;99.90;;;;;;5051573;28;20018;-76
2021/03/22 10:13:20;;;;;;;5.13;2.03;;;7.90;99.90;;;;;;5050971;28;20029;-77
2021/03/22 10:15:54;;;;;;;4.13;2.70;;;7.80;99.90;;;;;;5054321;28;20025;-76
2021/03/22 10:18:43;;;;;;;4.72;3.10;;;7.80;99.90;;;;;;5055640;28;20024;-77
2021/03/22 10:21:19;;;;;;;5.38;2.53;;;7.90;99.90;;;;;;5055789;28;20021;-77
2021/03/22 10:24:00;;;;;;;2.40;2.20;;;8.10;99.90;;;;;;5056310;28;20025;-77
2021/03/22 10:26:41;;;;;;;4.75;2.25;;;8.60;99.90;;;;;;5055714;28;20029;-76
2021/03/22 10:29:12;;;;;;;;;;;8.50;99.90;;;;;;5057039;28;19908;-77
2021/03/22 10:31:38;;;;;;;;;;;8.40;99.90;;;;;;5055986;28;19916;-77
2021/03/22 10:34:03;;;;;;;;;;;8.50;99.90;;;;;;5053926;28;20038;-77
2021/03/22 10:36:31;;;;;;;;;;;8.40;99.90;;;;;;5054445;28;24111;-78
2021/03/22 10:38:56;;;;;;;;;;;8.60;99.90;;;;;;5057496;28;20456;-78
2021/03/22 10:41:27;;;;;;;;;;;8.50;99.90;;;;;;5055061;28;19959;-76
2021/03/22 10:43:57;;;;;;;;;;;8.70;99.90;;;;;;5053288;28;19959;-77
2021/03/22 10:46:24;;;;;;;;;;;8.70;99.90;;;;;;5057512;28;20000;-79
2021/03/22 10:49:07;;;;;;;;;;;8.60;99.90;;;;;;5057564;28;19933;-76
2021/03/22 10:51:37;;;;;;;;;;;8.40;99.90;;;;;;5055407;28;19950;-76
2021/03/22 10:54:04;;;;;;;;;;;8.40;99.90;;;;;;5055437;28;19948;-77
2021/03/22 10:56:32;;;;;;;;;;;8.00;99.90;;;;;;5054286;28;19988;-77
2021/03/22 10:59:01;;;;;;;;;;;8.10;99.90;;;;;;5054302;28;19961;-76
2021/03/22 11:01:32;;;;;;;;;;;8.10;99.90;;;;;;5055623;28;19909;-76
2021/03/22 11:04:05;;;;;;;;;;;8.30;99.90;;;;;;5054141;28;19905;-77
2021/03/22 11:06:33;;;;;;;;;;;8.20;99.90;;;;;;5054172;28;19949;-76
2021/03/22 11:09:05;;;;;;;2.92;1.67;;;8.30;99.90;;;;;;5056024;28;20233;-77
2021/03/22 11:11:31;;;;;;;;;;;8.40;99.90;;;;;;5054627;28;19909;-79
2021/03/22 11:13:59;;;;;;;;;;;8.20;99.90;;;;;;5056676;28;20414;-77
2021/03/22 11:16:26;;;;;;;;;;;8.10;99.90;;;;;;5054076;28;19927;-76
2021/03/22 11:18:52;;;;;;;;;;;8.00;99.90;;;;;;5055815;28;19909;-76
2021/03/22 11:21:19;;;;;;;;;;;8.00;99.90;;;;;;5054307;28;19905;-77
2021/03/22 11:23:45;;;;;;;;;;;8.00;99.90;;;;;;5054456;28;19911;-76
2021/03/22 11:26:13;;;;;;;;;;;8.10;99.90;;;;;;5052584;28;19904;-76
2021/03/22 11:28:38;;;;;;;;;;;8.30;99.90;;;;;;5053447;28;19905;-76
2021/03/22 11:31:05;;;;;;;;;;;8.40;99.90;;;;;;5053893;28;19958;-77
2021/03/22 11:33:41;;;;;;;;;;;8.60;99.90;;;;;;5053515;28;19909;-77
2021/03/22 11:36:14;;;;;;;;;;;8.60;99.90;;;;;;5055554;28;19959;-78
2021/03/22 11:38:51;;;;;;;;;;;8.70;99.90;;;;;;5054891;28;19912;-77
2021/03/22 11:41:37;;;;;;;;;;;8.60;99.90;;;;;;5053541;28;20281;-77
2021/03/22 11:44:05;;;;;;;;;;;8.80;99.90;;;;;;5053348;28;19912;-77
2021/03/22 11:46:36;;;;;;;;;;;8.70;99.90;;;;;;5054534;28;20348;-76
2021/03/22 11:49:02;;;;;;;;;;;8.50;99.90;;;;;;5053710;28;19964;-76
2021/03/22 11:51:27;;;;;;;;;;;8.60;99.90;;;;;;5052456;28;24170;-76
2021/03/22 11:53:57;;;;;;;;;;;8.60;99.90;;;;;;5054470;28;20034;-81
2021/03/22 11:56:27;;;;;;;;;;;8.30;99.90;;;;;;5056911;28;19963;-77
2021/03/22 11:59:05;;;;;;;;;;;8.30;99.90;;;;;;5053794;28;19912;-77
2021/03/22 12:01:31;;;;;;;;;;;8.10;99.90;;;;;;5054149;28;19944;-77
2021/03/22 12:04:02;;;;;;;;;;;8.10;99.90;;;;;;5054414;28;19915;-76
2021/03/22 12:06:28;;;;;;;;;;;8.00;99.90;;;;;;5053293;28;20356;-77
2021/03/22 12:08:53;;;;;;;;;;;8.10;99.90;;;;;;5053366;28;19912;-77
2021/03/22 12:11:19;;;;;;;;;;;8.00;99.90;;;;;;5054316;28;19994;-76
2021/03/22 12:13:48;;;;;;;;;;;8.20;99.90;;;;;;5053042;28;19904;-75
2021/03/22 12:16:18;;;;;;;;;;;8.30;99.90;;;;;;5052970;28;19909;-77
2021/03/22 12:18:44;;;;;;;;;;;8.30;99.90;;;;;;5052737;28;19908;-76
2021/03/22 12:21:11;;;;;;;;;;;8.20;99.90;;;;;;5052872;28;20422;-76
2021/03/22 12:23:36;;;;;;;;;;;8.10;99.90;;;;;;5053946;28;19913;-76
2021/03/22 12:26:03;;;;;;;;;;;8.10;99.90;;;;;;5052669;28;19905;-77
2021/03/22 12:28:29;;;;;;;;;;;8.00;99.90;;;;;;5053913;28;19905;-76
2021/03/22 12:30:54;;;;;;;;;;;8.00;99.90;;;;;;5053885;28;20271;-76
2021/03/22 12:33:21;;;;;;;;;;;8.20;99.90;;;;;;5052715;28;19912;-77
2021/03/22 12:35:47;;;;;;;;;;;8.30;99.90;;;;;;5054195;28;20068;-77
2021/03/22 12:38:13;;;;;;;;;;;8.40;99.90;;;;;;5052844;28;19905;-79
2021/03/22 12:40:38;;;;;;;;;;;8.60;99.90;;;;;;5054039;28;19905;-76
2021/03/22 12:43:05;;;;;;;;;;;8.70;99.90;;;;;;5053557;28;20388;-76
2021/03/22 12:45:32;;;;;;;;;;;8.60;99.90;;;;;;5052200;28;20016;-76
2021/03/22 12:47:57;;;;;;;;;;;8.70;99.90;;;;;;5067940;28;19904;-77
2021/03/22 12:50:23;;;;;;;;;;;8.60;99.90;;;;;;5072082;28;19911;-76
2021/03/22 12:52:50;;;;;;;;;;;8.50;99.90;;;;;;5073893;28;19911;-77
2021/03/22 12:55:16;;;;;;;;;;;8.30;99.90;;;;;;5071987;28;19904;-77
2021/03/22 12:57:41;;;;;;;;;;;8.30;99.90;;;;;;5071635;28;19991;-77
2021/03/22 13:00:07;;;;;;;;;;;8.00;99.90;;;;;;5070680;28;19912;-78
2021/03/22 13:02:33;;;;;;;;;;;7.90;99.90;;;;;;5072797;28;19908;-79
2021/03/22 13:04:59;;;;;;;;;;;7.90;99.90;;;;;;5073079;28;19915;-77
2021/03/22 13:07:24;;;;;;;;;;;8.10;99.90;;;;;;5072776;28;19904;-78
2021/03/22 13:09:50;;;;;;;;;;;8.30;99.90;;;;;;5072533;28;19904;-77
2021/03/22 13:12:20;;;;;;;;;;;8.30;99.90;;;;;;5072458;28;19974;-77
2021/03/22 13:14:45;;;;;;;;;;;8.20;99.90;;;;;;5067805;28;19947;-77
2021/03/22 13:17:14;;;;;;;;;;;8.10;99.90;;;;;;5061417;28;19943;-77
2021/03/22 13:19:40;;;;;;;;;;;8.30;99.90;;;;;;5062965;28;20003;-77
2021/03/22 13:22:11;;;;;;;;;;;8.10;99.90;;;;;;5061704;28;19944;-78
2021/03/22 13:24:37;;;;;;;;;;;8.10;99.90;;;;;;5061330;28;19915;-78
2021/03/22 13:27:02;;;;;;;;;;;8.10;99.90;;;;;;5063906;28;20271;-77
2021/03/22 13:29:28;;;;;;;;;;;8.00;99.90;;;;;;5060715;28;19912;-77
2021/03/22 13:31:53;;;;;;;;;;;7.90;99.90;;;;;;5061822;28;19919;-77
2021/03/22 13:34:19;;;;;;;;;;;8.00;99.90;;;;;;5060980;28;19904;-77
2021/03/22 13:36:44;;;;;;;;;;;8.10;99.90;;;;;;5062257;28;20408;-77
2021/03/22 13:39:10;;;;;;;;;;;8.10;99.90;;;;;;5059950;28;19908;-77
2021/03/22 13:41:37;;;;;;;;;;;8.10;99.90;;;;;;5060336;28;19904;-78
2021/03/22 13:44:04;;;;;;;;;;;8.00;99.90;;;;;;5061188;28;19999;-76
2021/03/22 13:46:31;;;;;;;;;;;8.00;99.90;;;;;;5061100;28;19911;-77
2021/03/22 13:48:57;;;;;;;;;;;8.10;99.90;;;;;;5060057;28;19912;-77
2021/03/22 13:51:26;;;;;;;;;;;8.00;99.90;;;;;;5060731;28;20372;-77
2021/03/22 13:53:53;;;;;;;;;;;8.00;99.90;;;;;;5061555;28;19905;-77
2021/03/22 13:56:18;;;;;;;;;;;8.00;99.90;;;;;;5061059;28;19948;-77
2021/03/22 13:58:44;;;;;;;;;;;8.00;99.90;;;;;;5062589;28;20009;-78
2021/03/22 14:01:12;;;;;;;;;;;7.90;99.90;;;;;;5062723;28;20378;-77
2021/03/22 14:03:38;;;;;;;;;;;7.90;99.90;;;;;;5060436;28;19911;-77
2021/03/22 14:06:03;;;;;;;;;;;7.80;99.90;;;;;;5060090;28;19905;-77
2021/03/22 14:08:29;;;;;;;;;;;7.80;99.90;;;;;;5062582;28;19904;-77
2021/03/22 14:10:54;;;;;;;;;;;7.80;99.90;;;;;;5060369;28;19911;-77
2021/03/22 14:13:20;;;;;;;;;;;7.80;99.90;;;;;;5064623;28;19995;-76
2021/03/22 14:15:46;;;;;;;;;;;7.90;99.90;;;;;;5065918;28;19995;-76
2021/03/22 14:18:14;;;;;;;;;;;7.80;99.90;;;;;;5072073;28;19909;-78
2021/03/22 14:20:40;;;;;;;;;;;7.80;99.90;;;;;;5070830;28;19995;-77
2021/03/22 14:23:06;;;;;;;;;;;7.90;99.90;;;;;;5071908;28;19996;-78
2021/03/22 14:25:32;;;;;;;;;;;8.00;99.90;;;;;;5072028;28;19912;-79
2021/03/22 14:27:58;;;;;;;;;;;7.80;99.90;;;;;;5070650;28;19904;-77
2021/03/22 14:30:25;;;;;;;;;;;7.80;99.90;;;;;;5071928;28;19999;-77
2021/03/22 14:32:51;;;;;;;;;;;7.80;99.90;;;;;;5071703;28;19912;-77
2021/03/22 14:35:17;;;;;;;;;;;7.70;99.90;;;;;;5065379;28;20390;-77